createdAt,value
2019-06-10T00:00:03.604Z,53.5
2019-06-10T00:05:02.790Z,53
2019-06-10T00:10:02.778Z,54.1
2019-06-10T00:15:03.283Z,53
2019-06-10T00:20:02.356Z,54.1
2019-06-10T00:25:02.614Z,54.1
2019-06-10T00:30:03.293Z,53
2019-06-10T00:35:04.358Z,52.5
2019-06-10T00:40:02.530Z,54.1
2019-06-10T00:45:04.359Z,51.9
2019-06-10T00:50:03.804Z,51.9
2019-06-10T00:55:01.614Z,51.9
2019-06-10T01:00:12.008Z,52.5
2019-06-10T01:05:01.003Z,51.9
2019-06-10T01:10:02.832Z,51.9
2019-06-10T01:15:01.019Z,53
2019-06-10T01:20:01.826Z,51.4
2019-06-10T01:25:01.620Z,53
2019-06-10T01:30:09.590Z,53
2019-06-10T01:35:01.385Z,51.9
2019-06-10T01:40:00.899Z,51.9
2019-06-10T01:45:01.688Z,51.9
2019-06-10T01:50:00.910Z,52.5
2019-06-10T01:55:01.936Z,52.5
2019-06-10T02:00:05.290Z,52.5
2019-06-10T02:05:02.463Z,50.3
2019-06-10T02:10:01.347Z,52.5
2019-06-10T02:15:02.371Z,50.3
2019-06-10T02:20:01.338Z,51.4
2019-06-10T02:25:01.209Z,51.9
2019-06-10T02:30:08.125Z,51.9
2019-06-10T02:35:10.077Z,51.9
2019-06-10T02:40:04.406Z,51.9
2019-06-10T02:45:03.595Z,51.9
2019-06-10T02:50:07.162Z,51.9
2019-06-10T02:55:04.048Z,51.9
2019-06-10T03:00:04.634Z,51.9
2019-06-10T03:05:04.461Z,51.9
2019-06-10T03:10:04.336Z,50.8
2019-06-10T03:15:02.061Z,51.9
2019-06-10T03:20:02.266Z,51.9
2019-06-10T03:25:02.893Z,51.9
2019-06-10T03:30:03.065Z,51.9
2019-06-10T03:35:05.300Z,49.8
2019-06-10T03:40:02.456Z,51.9
2019-06-10T03:45:03.145Z,52.5
2019-06-10T03:50:03.175Z,51.4
2019-06-10T03:55:02.975Z,51.9
2019-06-10T04:00:10.311Z,51.9
2019-06-10T04:05:02.697Z,50.8
2019-06-10T04:10:02.634Z,48.7
2019-06-10T04:15:03.019Z,51.4
2019-06-10T04:20:09.100Z,50.8
2019-06-10T04:25:02.961Z,50.8
2019-06-10T04:30:03.081Z,51.4
2019-06-10T04:35:02.229Z,50.8
2019-06-10T04:40:02.786Z,50.8
2019-06-10T04:45:03.085Z,49.8
2019-06-10T04:50:02.921Z,50.8
2019-06-10T04:55:02.491Z,50.8
2019-06-10T05:00:02.764Z,51.4
2019-06-10T05:05:02.855Z,49.8
2019-06-10T05:10:03.181Z,50.8
2019-06-10T05:15:03.258Z,49.8
2019-06-10T05:20:02.477Z,50.3
2019-06-10T05:25:02.430Z,49.8
2019-06-10T05:30:02.243Z,49.8
2019-06-10T05:35:03.448Z,48.7
2019-06-10T05:40:02.171Z,50.8
2019-06-10T05:45:02.950Z,50.8
2019-06-10T05:50:03.179Z,50.8
2019-06-10T05:55:02.848Z,50.8
2019-06-10T06:00:07.074Z,50.8
2019-06-10T06:05:02.529Z,50.8
2019-06-10T06:10:02.525Z,50.8
2019-06-10T06:15:02.313Z,50.8
2019-06-10T06:20:02.687Z,49.8
2019-06-10T06:25:03.603Z,51.4
2019-06-10T06:30:04.108Z,50.8
2019-06-10T06:35:02.067Z,49.8
2019-06-10T06:40:02.762Z,51.9
2019-06-10T06:45:02.812Z,50.8
2019-06-10T06:50:02.677Z,50.8
2019-06-10T06:55:02.445Z,50.8
2019-06-10T07:00:23.887Z,51.9
2019-06-10T07:05:03.123Z,51.9
2019-06-10T07:10:03.191Z,51.4
2019-06-10T07:15:04.289Z,50.3
2019-06-10T07:20:03.228Z,53
2019-06-10T07:25:05.821Z,51.9
2019-06-10T07:30:11.217Z,51.9
2019-06-10T07:35:02.851Z,51.9
2019-06-10T07:40:03.013Z,53
2019-06-10T07:45:02.498Z,51.9
2019-06-10T07:50:02.988Z,50.8
2019-06-10T07:55:02.467Z,53
2019-06-10T08:00:03.081Z,53
2019-06-10T08:05:03.621Z,53
2019-06-10T08:10:02.847Z,53
2019-06-10T08:15:02.674Z,53
2019-06-10T08:20:02.455Z,53
2019-06-10T08:25:04.607Z,53
2019-06-10T08:30:15.054Z,53
2019-06-10T08:35:02.858Z,51.4
2019-06-10T08:40:03.604Z,54.1
2019-06-10T08:45:03.375Z,53.5
2019-06-10T08:50:02.572Z,54.1
2019-06-10T08:55:03.279Z,53.5
2019-06-10T09:00:06.970Z,54.1
2019-06-10T09:05:03.602Z,53
2019-06-10T09:10:02.924Z,54.6
2019-06-10T09:15:03.662Z,53.5
2019-06-10T09:20:02.886Z,53
2019-06-10T09:25:02.872Z,54.1
2019-06-10T09:30:02.945Z,54.6
2019-06-10T09:35:03.361Z,53
2019-06-10T09:40:03.338Z,55.1
2019-06-10T09:45:02.564Z,54.1
2019-06-10T09:50:03.167Z,58.4
2019-06-10T09:55:02.656Z,60
2019-06-10T10:00:03.383Z,60
2019-06-10T10:05:02.929Z,60.5
2019-06-10T10:10:04.427Z,60.5
2019-06-10T10:15:21.545Z,60.5
2019-06-10T10:20:03.162Z,60.5
2019-06-10T10:25:02.956Z,61.1
2019-06-10T10:30:03.337Z,60.5
2019-06-10T10:35:02.999Z,61.1
2019-06-10T10:40:03.194Z,61.6
2019-06-10T10:45:02.828Z,61.6
2019-06-10T10:50:02.734Z,62.7
2019-06-10T10:55:06.525Z,62.7
2019-06-10T11:00:03.078Z,63.2
2019-06-10T11:05:02.007Z,62.7
2019-06-10T11:10:03.833Z,63.8
2019-06-10T11:15:05.047Z,64.3
2019-06-10T11:20:03.789Z,63.8
2019-06-10T11:25:01.718Z,63.8
2019-06-10T11:30:02.478Z,64.3
2019-06-10T11:35:02.857Z,64.8
2019-06-10T11:40:02.943Z,64.3
2019-06-10T11:45:02.883Z,64.3
2019-06-10T11:50:03.410Z,64.8
2019-06-10T11:55:11.493Z,63.8
2019-06-10T12:00:08.844Z,65.4
2019-06-10T12:05:04.017Z,64.8
2019-06-10T12:10:02.026Z,64.8
2019-06-10T12:15:02.285Z,64.8
2019-06-10T12:20:03.214Z,65.9
2019-06-10T12:25:24.779Z,65.9
2019-06-10T12:30:04.910Z,65.9
2019-06-10T12:35:05.151Z,65.4
2019-06-10T12:40:05.613Z,65.9
2019-06-10T12:45:05.858Z,65.9
2019-06-10T12:50:04.126Z,66.4
2019-06-10T12:55:02.429Z,65.9
2019-06-10T13:00:09.638Z,66.4
2019-06-10T13:05:04.552Z,65.9
2019-06-10T13:10:02.910Z,66.4
2019-06-10T13:15:04.725Z,66.4
2019-06-10T13:20:05.797Z,65.9
2019-06-10T13:25:02.729Z,66.4
2019-06-10T13:30:02.683Z,67
2019-06-10T13:35:03.555Z,67.5
2019-06-10T13:40:05.990Z,68.1
2019-06-10T13:45:04.826Z,68.6
2019-06-10T13:50:05.977Z,69.1
2019-06-10T13:55:03.809Z,70.8
2019-06-10T14:00:05.197Z,70.8
2019-06-10T14:05:03.431Z,71.3
2019-06-10T14:10:03.934Z,72.4
2019-06-10T14:15:04.449Z,71.3
2019-06-10T14:20:03.683Z,71.3
2019-06-10T14:25:03.204Z,71.3
2019-06-10T14:30:04.518Z,71.3
2019-06-10T14:35:03.501Z,71.8
2019-06-10T14:40:03.891Z,72.4
2019-06-10T14:45:01.934Z,72.9
2019-06-10T14:50:03.250Z,72.4
2019-06-10T14:55:02.556Z,71.8
2019-06-10T15:00:02.880Z,72.4
2019-06-10T15:05:02.766Z,72.9
2019-06-10T15:10:03.400Z,72.4
2019-06-10T15:15:01.840Z,71.8
2019-06-10T15:20:03.687Z,71.3
2019-06-10T15:25:03.177Z,70.8
2019-06-10T15:30:07.428Z,70.2
2019-06-10T15:35:03.307Z,70.2
2019-06-10T15:40:03.606Z,70.2
2019-06-10T15:45:02.430Z,69.7
2019-06-10T15:50:03.113Z,69.7
2019-06-10T15:55:04.121Z,68.6
2019-06-10T16:00:02.946Z,69.1
2019-06-10T16:05:01.852Z,69.1
2019-06-10T16:10:02.817Z,70.2
2019-06-10T16:15:02.598Z,71.3
2019-06-10T16:20:03.772Z,72.4
2019-06-10T16:25:03.402Z,72.4
2019-06-10T16:30:02.736Z,73.4
2019-06-10T16:35:03.960Z,73.4
2019-06-10T16:40:03.269Z,73.4
2019-06-10T16:45:02.481Z,72.4
2019-06-10T16:50:03.160Z,71.3
2019-06-10T16:55:02.380Z,70.2
2019-06-10T17:00:04.065Z,71.3
2019-06-10T17:05:03.145Z,70.2
2019-06-10T17:10:02.447Z,70.2
2019-06-10T17:15:03.417Z,70.2
2019-06-10T17:20:03.713Z,70.2
2019-06-10T17:25:01.933Z,69.1
2019-06-10T17:30:02.815Z,69.1
2019-06-10T17:35:02.498Z,68.1
2019-06-10T17:40:02.699Z,69.1
2019-06-10T17:45:02.486Z,68.6
2019-06-10T17:50:02.484Z,67.5
2019-06-10T17:55:03.316Z,68.1
2019-06-10T18:00:07.248Z,68.6
2019-06-10T18:05:03.209Z,68.1
2019-06-10T18:10:02.760Z,68.1
2019-06-10T18:15:03.473Z,68.1
2019-06-10T18:20:02.779Z,68.1
2019-06-10T18:25:03.002Z,67
2019-06-10T18:30:03.716Z,67
2019-06-10T18:35:02.895Z,67
2019-06-10T18:40:02.733Z,67.5
2019-06-10T18:45:02.681Z,65.9
2019-06-10T18:50:02.479Z,67
2019-06-10T18:55:03.285Z,67
2019-06-10T19:00:04.175Z,67
2019-06-10T19:05:02.788Z,65.9
2019-06-10T19:10:02.414Z,66.4
2019-06-10T19:15:02.803Z,66.4
2019-06-10T19:20:03.900Z,67
2019-06-10T19:25:03.607Z,65.9
2019-06-10T19:30:02.036Z,66.4
2019-06-10T19:35:02.809Z,65.9
2019-06-10T19:40:02.232Z,66.4
2019-06-10T19:45:03.030Z,66.4
2019-06-10T19:50:02.940Z,65.4
2019-06-10T19:55:02.618Z,65.9
2019-06-10T20:00:10.843Z,64.8
2019-06-10T20:05:02.269Z,65.9
2019-06-10T20:10:02.793Z,64.8
2019-06-10T20:15:02.373Z,65.4
2019-06-10T20:20:02.597Z,65.9
2019-06-10T20:25:03.748Z,64.8
2019-06-10T20:30:09.760Z,65.4
2019-06-10T20:35:02.928Z,64.8
2019-06-10T20:40:03.543Z,64.8
2019-06-10T20:45:02.734Z,64.8
2019-06-10T20:50:03.039Z,61.6
2019-06-10T20:55:02.917Z,59.5
2019-06-10T21:00:02.296Z,59.5
2019-06-10T21:05:02.744Z,58.4
2019-06-10T21:10:02.728Z,57.8
2019-06-10T21:15:02.427Z,58.4
2019-06-10T21:20:03.194Z,58.4
2019-06-10T21:25:02.443Z,57.8
2019-06-10T21:30:03.049Z,58.4
2019-06-10T21:35:03.056Z,56.2
2019-06-10T21:40:03.215Z,56.8
2019-06-10T21:45:03.242Z,56.2
2019-06-10T21:50:01.451Z,56.8
2019-06-10T21:55:02.777Z,56.8
2019-06-10T22:00:02.519Z,57.3
2019-06-10T22:05:03.277Z,56.8
2019-06-10T22:10:02.479Z,56.8
2019-06-10T22:15:00.633Z,56.2
2019-06-10T22:20:01.338Z,56.8
2019-06-10T22:25:02.902Z,55.7
2019-06-10T22:30:04.227Z,55.1
2019-06-10T22:35:02.961Z,55.7
2019-06-10T22:40:03.232Z,54.1
2019-06-10T22:45:03.770Z,56.2
2019-06-10T22:50:06.941Z,54.1
2019-06-10T22:55:03.338Z,55.1
2019-06-10T23:00:03.150Z,57.3
2019-06-10T23:05:05.212Z,55.7
2019-06-10T23:10:03.206Z,55.1
2019-06-10T23:15:02.780Z,55.1
2019-06-10T23:20:03.141Z,55.1
2019-06-10T23:25:02.884Z,53
2019-06-10T23:30:07.243Z,55.7
2019-06-10T23:35:02.506Z,54.1
2019-06-10T23:40:03.727Z,54.6
2019-06-10T23:45:04.769Z,53
2019-06-10T23:50:04.111Z,55.1
2019-06-10T23:55:03.024Z,54.1
